Time;durP1;ratioP1;P1;durP2;ratioP2;P2;SDS_P1;SDS_P2;PMS_P1;PMS_P2;Temp;Humidity;BMP_temperature;BMP_pressure;BME280_temperature;BME280_humidity;BME280_pressure;Samples;Min_cycle;Max_cycle;Signal;HPM_P1;HPM_P2
2022/04/22 00:00:32;;;;;;;1.47;1.10;;;11.20;93.00;;;;;;5018208;28;20532;-79
2022/04/22 00:02:59;;;;;;;1.50;1.13;;;11.10;93.00;;;;;;5020305;28;21022;-80
2022/04/22 00:05:27;;;;;;;1.47;1.10;;;11.10;93.40;;;;;;5022693;28;21050;-78
2022/04/22 00:07:57;;;;;;;1.47;1.00;;;11.00;93.60;;;;;;5022328;28;20468;-77
2022/04/22 00:10:25;;;;;;;1.50;1.10;;;11.00;93.20;;;;;;5023184;28;20471;-78
2022/04/22 00:12:52;;;;;;;1.47;1.00;;;11.00;93.60;;;;;;5022520;28;20487;-79
2022/04/22 00:15:20;;;;;;;1.50;1.10;;;10.90;93.50;;;;;;5023205;28;20464;-79
2022/04/22 00:17:48;;;;;;;1.50;1.10;;;10.90;94.00;;;;;;5021184;28;20552;-78
2022/04/22 00:20:15;;;;;;;1.40;1.10;;;10.90;94.10;;;;;;5020927;28;20467;-78
2022/04/22 00:22:44;;;;;;;1.43;1.10;;;10.80;94.40;;;;;;5023114;28;20484;-78
2022/04/22 00:25:13;;;;;;;1.40;1.00;;;10.80;95.10;;;;;;5021285;28;20496;-79
2022/04/22 00:27:41;;;;;;;1.50;1.10;;;10.80;95.00;;;;;;5021639;28;20536;-80
2022/04/22 00:30:10;;;;;;;1.43;1.10;;;10.80;95.30;;;;;;5021390;28;20623;-78
2022/04/22 00:32:37;;;;;;;1.50;1.10;;;10.70;94.70;;;;;;5021042;28;20548;-78
2022/04/22 00:35:05;;;;;;;1.47;1.07;;;10.70;94.60;;;;;;5022533;28;20464;-76
2022/04/22 00:37:32;;;;;;;1.47;1.10;;;10.70;94.80;;;;;;5022075;28;20492;-80
2022/04/22 00:40:01;;;;;;;1.47;1.10;;;10.70;94.90;;;;;;5021113;28;20464;-80
2022/04/22 00:42:28;;;;;;;1.43;1.00;;;10.70;94.90;;;;;;5021292;28;20480;-80
2022/04/22 00:44:58;;;;;;;1.50;1.10;;;10.60;95.50;;;;;;5022788;28;21004;-79
2022/04/22 00:47:26;;;;;;;1.50;1.10;;;10.60;95.60;;;;;;5021628;28;20467;-79
2022/04/22 00:49:53;;;;;;;1.50;1.10;;;10.60;96.50;;;;;;5020429;28;20475;-78
2022/04/22 00:52:20;;;;;;;1.50;1.20;;;10.50;96.20;;;;;;5020154;28;20490;-79
2022/04/22 00:54:48;;;;;;;1.50;1.10;;;10.50;96.80;;;;;;5021907;28;21145;-77
2022/04/22 00:57:16;;;;;;;1.50;1.10;;;10.50;97.10;;;;;;5021135;28;20475;-80
2022/04/22 00:59:44;;;;;;;1.50;1.10;;;10.40;98.20;;;;;;5020072;28;20470;-77
2022/04/22 01:02:11;;;;;;;1.40;1.07;;;10.40;98.00;;;;;;5018961;28;20491;-80
2022/04/22 01:10:09;;;;;;;1.47;1.10;;;10.30;98.20;;;;;;5018499;28;20463;-78
2022/04/22 01:12:38;;;;;;;1.43;1.03;;;10.30;98.20;;;;;;5020885;28;20484;-78
2022/04/22 01:15:06;;;;;;;1.50;1.20;;;10.30;98.20;;;;;;5021266;28;20468;-80
2022/04/22 01:17:33;;;;;;;1.50;1.10;;;10.20;98.20;;;;;;5020128;28;20784;-77
2022/04/22 01:20:00;;;;;;;1.50;1.20;;;10.20;98.20;;;;;;5019783;28;20472;-78
2022/04/22 01:22:28;;;;;;;1.50;1.10;;;10.20;98.20;;;;;;5046939;22;20598;-87
2022/04/22 01:24:59;;;;;;;1.50;1.10;;;10.10;98.20;;;;;;5030304;28;21278;-87
2022/04/22 01:27:29;;;;;;;1.50;1.20;;;10.10;98.20;;;;;;5030544;28;20474;-89
2022/04/22 01:29:56;;;;;;;1.50;1.10;;;10.10;98.20;;;;;;5029370;28;20483;-89
2022/04/22 01:32:23;;;;;;;1.50;1.10;;;10.10;98.20;;;;;;5030515;28;20459;-89
2022/04/22 01:34:50;;;;;;;1.50;1.10;;;10.10;98.20;;;;;;5030833;28;20467;-88
2022/04/22 01:37:17;;;;;;;1.50;1.20;;;10.10;98.20;;;;;;5030496;28;20466;-88
2022/04/22 01:39:45;;;;;;;1.50;1.10;;;10.10;98.20;;;;;;5030010;28;20502;-87
2022/04/22 01:42:11;;;;;;;1.43;1.10;;;10.10;98.20;;;;;;5028908;28;20913;-87
2022/04/22 01:44:38;;;;;;;1.50;1.10;;;10.10;98.20;;;;;;5030150;28;20495;-88
2022/04/22 01:47:06;;;;;;;1.50;1.10;;;10.10;98.20;;;;;;5030176;28;20521;-88
2022/04/22 01:49:32;;;;;;;1.47;1.10;;;10.10;98.20;;;;;;5030827;28;20487;-87
2022/04/22 01:52:00;;;;;;;1.40;1.10;;;10.10;98.20;;;;;;5030878;28;20459;-86
2022/04/22 01:54:27;;;;;;;1.43;1.10;;;10.10;98.20;;;;;;5047786;28;21107;-87
2022/04/22 01:56:55;;;;;;;1.47;1.10;;;10.00;98.20;;;;;;5030427;28;20474;-88
2022/04/22 01:59:22;;;;;;;1.50;1.10;;;10.00;98.20;;;;;;5023755;28;20852;-89
2022/04/22 02:01:48;;;;;;;1.43;1.10;;;10.00;98.20;;;;;;5031244;28;20475;-89
2022/04/22 02:04:15;;;;;;;1.50;1.10;;;10.00;98.20;;;;;;5033365;28;20491;-89
2022/04/22 02:06:42;;;;;;;1.43;1.10;;;9.90;98.20;;;;;;5029971;28;20483;-87
2022/04/22 02:09:08;;;;;;;1.47;1.10;;;9.90;98.20;;;;;;5028684;28;20499;-89
2022/04/22 02:11:35;;;;;;;1.50;1.10;;;9.90;98.20;;;;;;5028641;28;20491;-87
2022/04/22 02:14:03;;;;;;;1.50;1.10;;;9.90;98.20;;;;;;5029499;28;20512;-87
2022/04/22 02:16:30;;;;;;;1.43;1.10;;;9.90;98.20;;;;;;5031251;28;20475;-87
2022/04/22 02:18:57;;;;;;;1.50;1.20;;;9.90;98.20;;;;;;5033518;28;21065;-88
2022/04/22 02:21:24;;;;;;;1.47;1.10;;;9.80;98.20;;;;;;5037506;28;20463;-88
2022/04/22 02:23:51;;;;;;;2.27;2.07;;;9.80;98.20;;;;;;5028417;28;20466;-90
2022/04/22 02:26:18;;;;;;;1.47;1.10;;;9.80;98.20;;;;;;5028399;28;20490;-89
2022/04/22 02:28:44;;;;;;;1.43;1.10;;;9.70;98.20;;;;;;5029209;28;21003;-88
2022/04/22 02:31:13;;;;;;;1.50;1.20;;;9.70;98.20;;;;;;5028589;28;20471;-88
2022/04/22 02:33:42;;;;;;;1.50;1.20;;;9.70;98.20;;;;;;5028218;28;20469;-86
2022/04/22 02:36:10;;;;;;;1.43;1.10;;;9.70;98.20;;;;;;5029331;28;22146;-88
2022/04/22 02:38:37;;;;;;;1.50;1.20;;;9.70;98.20;;;;;;5028371;28;20479;-88
2022/04/22 02:46:35;;;;;;;1.47;1.20;;;9.60;98.20;;;;;;5012288;28;20447;-77
2022/04/22 02:49:02;;;;;;;1.47;1.10;;;9.50;98.20;;;;;;5015292;28;20466;-77
2022/04/22 02:51:29;;;;;;;1.50;1.10;;;9.50;98.20;;;;;;5016360;28;20494;-77
2022/04/22 02:53:57;;;;;;;1.47;1.20;;;9.50;98.20;;;;;;5024507;28;20467;-77
2022/04/22 02:56:25;;;;;;;1.50;1.20;;;9.50;98.20;;;;;;5015346;28;20452;-77
2022/04/22 02:58:53;;;;;;;1.43;1.10;;;9.50;98.20;;;;;;5014772;28;20472;-77
2022/04/22 03:01:21;;;;;;;1.47;1.10;;;9.50;98.20;;;;;;5015190;28;21018;-77
2022/04/22 03:03:49;;;;;;;1.50;1.20;;;9.50;98.20;;;;;;5015695;28;20456;-77
2022/04/22 03:06:16;;;;;;;1.47;1.23;;;9.50;98.20;;;;;;5016785;28;20494;-77
2022/04/22 03:08:43;;;;;;;1.50;1.20;;;9.50;98.20;;;;;;5015294;28;20467;-77
2022/04/22 03:11:10;;;;;;;1.50;1.20;;;9.50;98.20;;;;;;5004699;28;20470;-77
2022/04/22 03:13:39;;;;;;;1.47;1.10;;;9.40;98.20;;;;;;5020316;28;20464;-77
2022/04/22 03:16:06;;;;;;;1.50;1.10;;;9.40;98.20;;;;;;5009644;28;20464;-77
2022/04/22 03:18:34;;;;;;;1.50;1.10;;;9.40;98.20;;;;;;5017352;28;20930;-77
2022/04/22 03:21:03;;;;;;;1.47;1.20;;;9.40;98.20;;;;;;5022264;28;20550;-77
2022/04/22 03:23:30;;;;;;;1.50;1.10;;;9.40;98.20;;;;;;5010602;28;20480;-77
2022/04/22 03:25:57;;;;;;;1.50;1.20;;;9.40;98.20;;;;;;5009899;28;20484;-77
2022/04/22 03:28:23;;;;;;;1.50;1.10;;;9.40;98.20;;;;;;5015320;28;20498;-77
2022/04/22 03:30:50;;;;;;;1.50;1.10;;;9.40;98.20;;;;;;5021489;28;20491;-77
2022/04/22 03:33:18;;;;;;;1.50;1.20;;;9.40;98.20;;;;;;5015186;28;21055;-78
2022/04/22 03:35:45;;;;;;;1.47;1.20;;;9.40;98.20;;;;;;5010614;28;20518;-77
2022/04/22 03:38:14;;;;;;;1.50;1.10;;;9.40;98.20;;;;;;5020004;28;20467;-77
2022/04/22 03:40:41;;;;;;;1.40;1.10;;;9.30;98.20;;;;;;5019629;28;20477;-77
2022/04/22 03:43:08;;;;;;;1.50;1.17;;;9.30;98.20;;;;;;5019351;28;20487;-77
2022/04/22 03:45:35;;;;;;;1.50;1.13;;;9.30;98.20;;;;;;5014813;28;20492;-77
2022/04/22 03:48:06;;;;;;;1.50;1.10;;;9.30;98.20;;;;;;5020041;28;20472;-77
2022/04/22 03:50:33;;;;;;;1.50;1.20;;;9.30;98.20;;;;;;5019268;28;20522;-77
2022/04/22 03:52:59;;;;;;;1.50;1.30;;;9.30;98.20;;;;;;5023763;28;20506;-77
2022/04/22 03:55:28;;;;;;;1.50;1.20;;;9.30;98.20;;;;;;5015103;28;20459;-77
2022/04/22 03:58:12;;;;;;;1.47;1.10;;;9.20;98.20;;;;;;5021131;28;20464;-77
2022/04/22 04:00:40;;;;;;;1.50;1.20;;;9.20;98.20;;;;;;5019517;28;20997;-77
2022/04/22 04:03:07;;;;;;;1.50;1.20;;;9.30;98.20;;;;;;5017221;28;20534;-77
2022/04/22 04:05:34;;;;;;;1.50;1.10;;;9.20;98.20;;;;;;5013619;28;20545;-77
2022/04/22 04:08:01;;;;;;;1.50;1.10;;;9.20;98.20;;;;;;5027427;28;20842;-77
2022/04/22 04:16:00;;;;;;;1.50;1.10;;;9.20;98.20;;;;;;5014526;28;20443;-77
2022/04/22 04:18:28;;;;;;;1.47;1.20;;;9.20;98.20;;;;;;5017800;28;20964;-77
2022/04/22 04:23:39;;;;;;;1.50;1.10;;;9.20;98.20;;;;;;5028631;28;20499;-77
2022/04/22 04:26:07;;;;;;;1.50;1.13;;;9.20;98.20;;;;;;5031189;28;20521;-77
2022/04/22 04:28:35;;;;;;;1.50;1.20;;;9.20;98.20;;;;;;5015631;28;20468;-77
2022/04/22 04:31:02;;;;;;;1.50;1.20;;;9.20;98.20;;;;;;5028196;28;20845;-77
2022/04/22 04:33:29;;;;;;;1.43;1.10;;;9.20;98.20;;;;;;5020938;28;20484;-77
2022/04/22 04:35:56;;;;;;;1.47;1.20;;;9.20;98.20;;;;;;5012931;28;21038;-77
2022/04/22 04:38:23;;;;;;;1.50;1.20;;;9.20;98.20;;;;;;5018993;28;20470;-77
2022/04/22 04:40:51;;;;;;;1.50;1.10;;;9.20;98.20;;;;;;5018775;28;20563;-77
2022/04/22 04:43:20;;;;;;;1.50;1.20;;;9.20;98.20;;;;;;5014660;28;20479;-78
2022/04/22 04:45:49;;;;;;;1.47;1.17;;;9.20;98.20;;;;;;5018092;28;20569;-77
2022/04/22 04:48:16;;;;;;;1.50;1.10;;;9.20;98.20;;;;;;5019070;28;20479;-77
2022/04/22 04:50:44;;;;;;;1.50;1.17;;;9.10;98.20;;;;;;5013579;28;21052;-78
2022/04/22 04:53:11;;;;;;;1.50;1.20;;;9.10;98.20;;;;;;5018193;28;20562;-77
2022/04/22 04:55:38;;;;;;;1.50;1.20;;;9.10;98.20;;;;;;5014496;28;20455;-77
2022/04/22 04:58:05;;;;;;;1.50;1.20;;;9.10;98.20;;;;;;5024215;28;20986;-77
2022/04/22 05:00:34;;;;;;;1.50;1.10;;;9.10;98.20;;;;;;5019364;28;20463;-77
2022/04/22 05:03:01;;;;;;;1.50;1.20;;;9.10;98.20;;;;;;5020168;28;20483;-77
2022/04/22 05:05:27;;;;;;;1.43;1.10;;;9.20;98.20;;;;;;5019901;28;20515;-77
2022/04/22 05:07:57;;;;;;;1.47;1.10;;;9.20;98.20;;;;;;5017349;28;20468;-77
2022/04/22 05:10:25;;;;;;;1.50;1.10;;;9.20;98.20;;;;;;5014202;28;20568;-78
2022/04/22 05:12:53;;;;;;;1.50;1.20;;;9.20;98.20;;;;;;5019401;28;20562;-77
2022/04/22 05:15:22;;;;;;;1.50;1.10;;;9.30;98.20;;;;;;5010677;28;20460;-77
2022/04/22 05:17:52;;;;;;;1.47;1.10;;;9.30;98.20;;;;;;5016540;28;20470;-78
2022/04/22 05:20:20;;;;;;;1.50;1.10;;;9.40;98.20;;;;;;5017990;28;20467;-78
2022/04/22 05:22:48;;;;;;;1.43;1.10;;;9.40;98.20;;;;;;5022887;28;20530;-78
2022/04/22 05:25:16;;;;;;;1.50;1.10;;;9.50;98.20;;;;;;5031142;28;20495;-78
2022/04/22 05:27:42;;;;;;;1.50;1.10;;;9.50;98.20;;;;;;5023063;28;20464;-78
2022/04/22 05:32:56;;;;;;;1.50;1.10;;;9.70;98.20;;;;;;5015845;28;20478;-77
2022/04/22 05:35:27;;;;;;;1.50;1.20;;;9.90;98.20;;;;;;5010315;28;20832;-77
2022/04/22 05:37:55;;;;;;;1.47;1.10;;;10.00;98.20;;;;;;5018019;28;20555;-77
2022/04/22 05:40:23;;;;;;;1.43;1.10;;;10.20;98.20;;;;;;5012480;28;20474;-77
2022/04/22 05:42:52;;;;;;;1.43;1.10;;;10.40;98.20;;;;;;5015205;28;20848;-77
2022/04/22 05:45:19;;;;;;;1.47;1.10;;;10.50;98.20;;;;;;5011034;28;20484;-77
2022/04/22 05:47:46;;;;;;;1.50;1.10;;;10.70;98.20;;;;;;5013646;28;20464;-78
2022/04/22 05:50:16;;;;;;;1.47;1.10;;;10.90;98.20;;;;;;5012032;28;20471;-77
2022/04/22 05:52:43;;;;;;;1.50;1.00;;;11.10;98.20;;;;;;5015422;28;20483;-76
2022/04/22 05:55:12;;;;;;;1.47;1.10;;;11.30;98.20;;;;;;5013793;28;20471;-77
2022/04/22 05:57:39;;;;;;;1.50;1.10;;;11.50;98.20;;;;;;5016148;28;20547;-77
2022/04/22 06:00:08;;;;;;;1.43;1.00;;;11.60;98.10;;;;;;5009501;28;20842;-77
2022/04/22 06:02:35;;;;;;;1.50;1.10;;;11.70;98.00;;;;;;5011826;28;20476;-77
2022/04/22 06:05:02;;;;;;;1.50;1.10;;;11.90;97.80;;;;;;5009677;28;20460;-77
2022/04/22 06:07:30;;;;;;;1.50;1.17;;;12.10;97.40;;;;;;5016377;28;21297;-77
2022/04/22 06:12:41;;;;;;;1.50;1.20;;;12.40;95.30;;;;;;5015920;28;21098;-77
2022/04/22 06:15:09;;;;;;;1.40;1.00;;;12.50;94.70;;;;;;5020361;28;20486;-77
2022/04/22 06:17:35;;;;;;;1.50;1.10;;;12.50;95.20;;;;;;5009607;28;21454;-77
2022/04/22 06:20:02;;;;;;;1.50;1.00;;;12.70;95.20;;;;;;5017052;28;20471;-77
2022/04/22 06:22:31;;;;;;;1.50;1.00;;;12.90;94.10;;;;;;5017537;28;20480;-77
2022/04/22 06:24:58;;;;;;;1.50;1.00;;;13.00;93.70;;;;;;5010524;28;20475;-77
2022/04/22 06:27:26;;;;;;;1.50;1.00;;;13.10;93.60;;;;;;5015753;28;20515;-77
2022/04/22 06:29:54;;;;;;;1.50;1.07;;;13.30;93.40;;;;;;5018373;28;20467;-77
2022/04/22 06:32:23;;;;;;;1.50;1.00;;;13.40;93.00;;;;;;5026373;28;20483;-77
2022/04/22 06:34:50;;;;;;;1.47;1.00;;;13.60;92.60;;;;;;5018404;28;20495;-76
2022/04/22 06:37:17;;;;;;;1.50;1.00;;;13.80;91.90;;;;;;5016818;28;20837;-77
2022/04/22 06:48:01;;;;;;;1.47;1.10;;;14.30;90.90;;;;;;5024422;28;20454;-77
2022/04/22 06:50:28;;;;;;;1.50;1.10;;;14.60;90.30;;;;;;5013397;28;20460;-77
2022/04/22 06:52:55;;;;;;;1.47;0.90;;;14.50;89.40;;;;;;5022038;28;20486;-77
2022/04/22 06:55:25;;;;;;;1.50;1.00;;;14.20;89.80;;;;;;5011951;28;20468;-77
2022/04/22 06:57:54;;;;;;;1.50;1.00;;;13.90;91.20;;;;;;5014350;28;20459;-76
2022/04/22 07:00:21;;;;;;;1.50;1.00;;;13.80;91.90;;;;;;5023178;28;20694;-76
2022/04/22 07:02:48;;;;;;;1.50;0.97;;;13.70;92.20;;;;;;5018309;28;20479;-77
2022/04/22 07:05:16;;;;;;;1.60;1.33;;;13.50;92.90;;;;;;5013411;28;20467;-78
2022/04/22 07:07:43;;;;;;;1.63;1.50;;;13.40;93.60;;;;;;5018337;28;20514;-78
2022/04/22 07:10:11;;;;;;;1.50;1.00;;;13.40;94.20;;;;;;5011051;28;20472;-78
2022/04/22 07:12:40;;;;;;;1.43;1.00;;;13.40;94.50;;;;;;5014007;28;20484;-78
2022/04/22 07:15:08;;;;;;;1.50;0.90;;;13.50;94.50;;;;;;5009942;28;20468;-75
2022/04/22 07:17:36;;;;;;;1.43;1.00;;;13.50;94.00;;;;;;5014655;28;20464;-78
2022/04/22 07:20:06;;;;;;;1.50;1.10;;;13.50;94.10;;;;;;5016477;28;21064;-78
2022/04/22 07:22:33;;;;;;;1.50;1.00;;;13.50;94.30;;;;;;5045616;22;21070;-77
2022/04/22 07:25:00;;;;;;;1.50;1.00;;;13.40;94.40;;;;;;5045970;28;20994;-78
2022/04/22 07:27:28;;;;;;;1.47;1.00;;;13.40;94.20;;;;;;5032842;28;20490;-78
2022/04/22 07:29:58;;;;;;;4.90;2.70;;;13.30;94.30;;;;;;5033745;28;20467;-77
2022/04/22 07:32:27;;;;;;;1.50;1.00;;;13.10;95.00;;;;;;5044472;28;20497;-77
2022/04/22 07:34:54;;;;;;;1.40;0.93;;;12.90;95.40;;;;;;5053410;28;20468;-77
2022/04/22 07:37:22;;;;;;;1.50;1.03;;;12.80;95.60;;;;;;5047674;28;20455;-77
2022/04/22 07:39:49;;;;;;;1.50;1.00;;;12.80;95.80;;;;;;5054058;28;20459;-78
2022/04/22 07:42:18;;;;;;;1.43;1.00;;;12.70;95.70;;;;;;5047884;28;20544;-78
2022/04/22 07:47:34;;;;;;;1.50;0.90;;;12.70;95.20;;;;;;5036733;28;20862;-75
2022/04/22 07:50:05;;;;;;;1.73;1.63;;;12.80;95.40;;;;;;5038074;28;20939;-75
2022/04/22 07:52:32;;;;;;;1.47;1.00;;;12.80;95.30;;;;;;5041361;28;20578;-76
2022/04/22 07:54:59;;;;;;;1.43;0.90;;;12.90;95.10;;;;;;5031937;28;20525;-77
2022/04/22 07:57:27;;;;;;;1.50;0.90;;;12.90;95.00;;;;;;5034002;28;20486;-77
2022/04/22 07:59:53;;;;;;;1.50;1.00;;;13.00;94.90;;;;;;5032586;28;20482;-77
2022/04/22 08:02:21;;;;;;;1.50;1.10;;;13.10;94.80;;;;;;5044634;28;20500;-77
2022/04/22 08:04:49;;;;;;;1.40;1.00;;;13.30;94.50;;;;;;5044633;28;20467;-77
2022/04/22 08:07:16;;;;;;;1.50;1.00;;;13.50;93.80;;;;;;5043576;28;20486;-77
2022/04/22 08:09:44;;;;;;;1.50;0.90;;;13.80;93.00;;;;;;5030999;28;20517;-76
2022/04/22 08:12:12;;;;;;;1.43;1.00;;;14.20;92.60;;;;;;5041998;28;20813;-78
2022/04/22 08:14:39;;;;;;;1.50;1.00;;;14.50;90.70;;;;;;5050945;28;20466;-77
2022/04/22 08:17:06;;;;;;;1.47;1.00;;;14.90;90.00;;;;;;5039867;28;21182;-77
2022/04/22 08:19:33;;;;;;;1.50;1.00;;;15.20;87.50;;;;;;5045170;28;20459;-78
2022/04/22 08:22:01;;;;;;;1.40;1.00;;;15.30;87.50;;;;;;5040935;28;20710;-78
2022/04/22 08:24:28;;;;;;;1.50;1.00;;;15.40;86.50;;;;;;5030785;28;20509;-77
2022/04/22 08:26:56;;;;;;;1.50;0.90;;;15.80;86.80;;;;;;5038108;28;20481;-77
2022/04/22 08:29:23;;;;;;;1.43;0.90;;;16.00;85.50;;;;;;5043758;28;20459;-76
2022/04/22 08:31:50;;;;;;;1.70;1.43;;;16.20;85.00;;;;;;5038776;28;20531;-77
2022/04/22 08:34:17;;;;;;;1.50;1.00;;;16.10;83.00;;;;;;5036555;28;20558;-77
2022/04/22 08:36:45;;;;;;;1.50;1.00;;;16.30;82.90;;;;;;5035236;28;20459;-76
2022/04/22 08:39:14;;;;;;;1.50;1.00;;;16.50;81.80;;;;;;5052603;28;21027;-75
2022/04/22 08:41:42;;;;;;;1.50;0.90;;;16.60;80.50;;;;;;5049209;28;20458;-76
2022/04/22 08:44:15;;;;;;;1.50;0.90;;;16.40;80.10;;;;;;5051487;28;20468;-76
2022/04/22 08:52:12;;;;;;;1.47;0.90;;;16.80;80.70;;;;;;5037488;28;20486;-77
2022/04/22 08:54:45;;;;;;;1.50;1.00;;;16.60;80.70;;;;;;5050234;28;20494;-77
2022/04/22 08:57:12;;;;;;;1.50;1.00;;;16.70;81.20;;;;;;5046615;28;20466;-77
2022/04/22 08:59:40;;;;;;;1.90;1.70;;;16.90;80.30;;;;;;5045854;28;20844;-77
2022/04/22 09:02:07;;;;;;;1.70;1.20;;;16.90;78.40;;;;;;5038370;28;20840;-78
2022/04/22 09:04:34;;;;;;;1.50;1.10;;;16.90;78.30;;;;;;5031630;28;20478;-77
2022/04/22 09:07:01;;;;;;;1.50;0.90;;;17.10;78.60;;;;;;5037502;28;20890;-77
2022/04/22 09:09:30;;;;;;;1.50;0.90;;;17.40;77.60;;;;;;5036668;28;20831;-77
2022/04/22 09:12:10;;;;;;;1.50;0.97;;;17.70;78.50;;;;;;5038998;28;20533;-78
2022/04/22 09:14:44;;;;;;;1.47;0.90;;;18.10;78.20;;;;;;5030432;28;20462;-76
2022/04/22 09:17:11;;;;;;;1.50;0.90;;;18.30;77.00;;;;;;5035274;28;20459;-77
2022/04/22 09:19:38;;;;;;;1.50;0.97;;;18.10;76.80;;;;;;5034307;28;20506;-77
2022/04/22 09:22:05;;;;;;;1.47;0.90;;;17.90;77.30;;;;;;5039341;28;21041;-78
2022/04/22 09:24:31;;;;;;;1.50;1.00;;;17.70;78.20;;;;;;5036230;28;20456;-79
2022/04/22 09:27:05;;;;;;;1.50;1.30;;;17.50;79.50;;;;;;5040489;28;20498;-78
2022/04/22 09:29:41;;;;;;;1.50;0.90;;;17.30;79.30;;;;;;5051119;28;20478;-79
2022/04/22 09:32:10;;;;;;;1.43;0.90;;;17.30;80.00;;;;;;5040136;28;20498;-78
2022/04/22 09:34:39;;;;;;;1.50;0.90;;;17.30;80.00;;;;;;5048620;28;20462;-78
2022/04/22 09:42:51;;;;;;;1.50;1.00;;;17.20;80.00;;;;;;5036510;28;20546;-77
2022/04/22 09:45:19;;;;;;;1.40;0.90;;;16.90;79.10;;;;;;5033080;28;20570;-78
2022/04/22 09:47:57;;;;;;;1.43;0.90;;;16.80;79.60;;;;;;5035241;28;20479;-77
2022/04/22 09:50:41;;;;;;;1.40;0.90;;;16.60;80.00;;;;;;5035560;28;20459;-78
2022/04/22 09:53:09;;;;;;;1.50;0.90;;;16.60;79.80;;;;;;5039951;28;20498;-78
2022/04/22 09:55:37;;;;;;;1.50;1.00;;;16.50;81.10;;;;;;5033379;28;20459;-77
2022/04/22 09:58:04;;;;;;;1.47;0.90;;;16.60;81.00;;;;;;5038958;28;20456;-77
2022/04/22 10:00:34;;;;;;;1.47;0.90;;;16.70;80.70;;;;;;5031090;28;20506;-78
2022/04/22 10:03:01;;;;;;;1.40;0.90;;;16.70;80.30;;;;;;5031647;28;20482;-77
2022/04/22 10:05:31;;;;;;;1.43;0.90;;;17.00;80.60;;;;;;5038837;28;20462;-77
2022/04/22 10:08:00;;;;;;;1.43;0.90;;;17.40;79.00;;;;;;5043577;28;20532;-77
2022/04/22 10:10:31;;;;;;;1.47;0.93;;;17.90;76.90;;;;;;5033099;28;20467;-77
2022/04/22 10:13:01;;;;;;;2.80;2.60;;;18.00;74.20;;;;;;5047313;28;20569;-78
2022/04/22 10:15:30;;;;;;;1.60;1.20;;;18.00;74.40;;;;;;5035646;28;20473;-78
2022/04/22 10:17:59;;;;;;;1.47;1.00;;;18.10;74.40;;;;;;5037159;28;20964;-78
2022/04/22 10:20:27;;;;;;;1.50;0.90;;;18.30;74.20;;;;;;5038067;28;20463;-78
2022/04/22 10:22:58;;;;;;;1.43;0.90;;;18.60;73.60;;;;;;5041145;28;20491;-77
2022/04/22 10:25:25;;;;;;;1.47;0.90;;;18.90;72.40;;;;;;5036632;28;20483;-77
2022/04/22 10:27:53;;;;;;;1.47;0.90;;;18.70;72.00;;;;;;5041186;28;20491;-78
2022/04/22 10:30:21;;;;;;;1.47;0.90;;;18.40;71.40;;;;;;5042519;28;20463;-78
2022/04/22 10:32:49;;;;;;;1.50;0.87;;;18.20;72.50;;;;;;5041430;28;20486;-77
2022/04/22 10:35:22;;;;;;;1.50;1.10;;;18.20;73.50;;;;;;5034724;28;20455;-78
2022/04/22 10:37:50;;;;;;;1.43;0.90;;;18.20;73.40;;;;;;5038406;28;20459;-77
2022/04/22 10:40:21;;;;;;;1.50;0.93;;;18.30;73.30;;;;;;5033884;28;20467;-78
2022/04/22 10:42:49;;;;;;;1.43;0.90;;;18.10;72.80;;;;;;5044339;28;20934;-78
2022/04/22 10:48:19;;;;;;;1.47;0.90;;;18.40;72.30;;;;;;5037854;28;20975;-77
2022/04/22 10:50:56;;;;;;;1.50;0.97;;;18.40;72.30;;;;;;5044953;28;20583;-78
2022/04/22 10:53:24;;;;;;;1.40;0.90;;;18.30;72.40;;;;;;5040008;28;20475;-77
2022/04/22 10:55:51;;;;;;;1.50;1.00;;;18.30;72.80;;;;;;5032139;28;20488;-77
2022/04/22 10:58:25;;;;;;;1.43;0.90;;;18.40;72.80;;;;;;5047945;28;20465;-78
2022/04/22 11:00:54;;;;;;;1.43;0.90;;;18.70;72.70;;;;;;5047033;28;20467;-77
2022/04/22 11:03:23;;;;;;;1.47;0.90;;;18.90;72.40;;;;;;5031620;28;20506;-77
2022/04/22 11:05:55;;;;;;;1.47;0.90;;;19.00;71.90;;;;;;5032402;28;20466;-78
2022/04/22 11:08:31;;;;;;;1.43;0.90;;;18.70;71.00;;;;;;5040354;28;20479;-83
2022/04/22 11:11:17;;;;;;;1.40;0.87;;;18.40;71.40;;;;;;5040806;28;20459;-82
2022/04/22 11:13:50;;;;;;;1.50;1.00;;;18.20;71.40;;;;;;5037934;28;20537;-81
2022/04/22 11:16:27;;;;;;;1.47;0.90;;;18.10;71.90;;;;;;5038303;28;20515;-77
2022/04/22 11:19:10;;;;;;;1.47;0.90;;;18.00;71.80;;;;;;5041204;28;20516;-81
2022/04/22 11:21:44;;;;;;;1.43;0.90;;;18.30;72.80;;;;;;5044447;28;20469;-81
2022/04/22 11:24:17;;;;;;;1.43;0.90;;;18.90;72.20;;;;;;5036491;28;20482;-78
2022/04/22 11:26:45;;;;;;;1.47;0.90;;;19.10;70.20;;;;;;5033955;28;20455;-78
2022/04/22 11:29:16;;;;;;;1.50;0.90;;;18.90;70.10;;;;;;5037648;28;20495;-79
2022/04/22 11:31:56;;;;;;;1.43;0.90;;;18.70;70.60;;;;;;5040312;28;20458;-84
2022/04/22 11:34:49;;;;;;;1.47;0.90;;;18.90;70.10;;;;;;5039749;28;20994;-79
2022/04/22 11:37:21;;;;;;;1.50;0.90;;;19.20;70.20;;;;;;5039322;28;20542;-80
2022/04/22 11:39:49;;;;;;;1.50;1.07;;;19.30;69.00;;;;;;5034477;28;20471;-80
2022/04/22 11:42:17;;;;;;;1.47;0.90;;;19.40;68.80;;;;;;5038979;28;20481;-78
2022/04/22 11:44:44;;;;;;;1.47;0.90;;;19.50;69.90;;;;;;5040288;28;20463;-79
2022/04/22 11:47:11;;;;;;;1.47;0.90;;;19.50;68.50;;;;;;5039269;28;21003;-78
2022/04/22 11:49:40;;;;;;;1.43;0.90;;;19.30;67.90;;;;;;5039195;28;20470;-79
2022/04/22 11:52:08;;;;;;;1.40;0.90;;;19.10;67.80;;;;;;5040798;28;20854;-80
2022/04/22 11:54:36;;;;;;;1.50;0.90;;;18.90;68.80;;;;;;5032401;28;20474;-77
2022/04/22 11:57:06;;;;;;;1.50;1.20;;;18.80;69.10;;;;;;5036254;28;20459;-77
2022/04/22 11:59:33;;;;;;;1.40;0.90;;;19.00;69.70;;;;;;5039416;28;20725;-79
2022/04/22 12:10:18;;;;;;;1.47;0.90;;;19.60;69.70;;;;;;5048567;28;20617;-80
2022/04/22 12:12:50;;;;;;;1.47;0.90;;;19.70;69.10;;;;;;5042822;28;20477;-79
2022/04/22 12:15:19;;;;;;;1.47;0.90;;;19.60;69.00;;;;;;5036471;28;20889;-80
2022/04/22 12:17:46;;;;;;;1.47;0.90;;;19.60;69.10;;;;;;5041780;28;20993;-79
2022/04/22 12:20:13;;;;;;;1.43;0.90;;;19.80;69.00;;;;;;5047611;28;20463;-79
2022/04/22 12:22:41;;;;;;;1.50;0.90;;;20.20;68.70;;;;;;5044769;28;20549;-79
2022/04/22 12:25:12;;;;;;;1.47;0.90;;;20.80;66.50;;;;;;5036724;28;20481;-78
2022/04/22 12:27:41;;;;;;;1.50;1.10;;;21.00;65.40;;;;;;5042458;28;20545;-80
2022/04/22 12:30:10;;;;;;;1.47;0.90;;;21.20;65.40;;;;;;5044460;28;20464;-78
2022/04/22 12:32:37;;;;;;;1.47;0.93;;;21.30;64.80;;;;;;5045863;28;20489;-79
2022/04/22 12:35:13;;;;;;;1.50;0.90;;;21.40;64.60;;;;;;5033598;28;20947;-79
2022/04/22 12:37:54;;;;;;;1.50;1.10;;;21.50;64.80;;;;;;5043535;28;20459;-78
2022/04/22 12:40:22;;;;;;;1.50;0.90;;;21.40;65.50;;;;;;5034007;28;20487;-79
2022/04/22 12:42:51;;;;;;;1.50;0.90;;;21.30;65.10;;;;;;5044181;28;20474;-80
2022/04/22 12:53:43;;;;;;;1.43;0.90;;;20.40;66.40;;;;;;5037918;28;20466;-82
2022/04/22 12:56:10;;;;;;;1.43;0.90;;;20.30;66.90;;;;;;5039130;28;20520;-78
2022/04/22 12:58:52;;;;;;;1.47;0.90;;;20.40;68.10;;;;;;5048990;28;20635;-79
2022/04/22 13:01:20;;;;;;;1.50;1.00;;;20.70;67.20;;;;;;5035725;28;21026;-79
2022/04/22 13:03:48;;;;;;;1.80;1.10;;;20.90;68.90;;;;;;5055251;28;20488;-79
2022/04/22 13:06:42;;;;;;;1.53;1.30;;;20.80;67.40;;;;;;5053860;28;20486;-79
2022/04/22 13:09:10;;;;;;;1.50;1.20;;;20.60;68.10;;;;;;5040382;28;20460;-80
2022/04/22 13:11:37;;;;;;;1.43;0.90;;;20.30;70.40;;;;;;5040690;28;20481;-82
2022/04/22 13:14:07;;;;;;;1.43;0.90;;;20.00;71.90;;;;;;5042236;28;20479;-77
2022/04/22 13:16:34;;;;;;;1.47;0.90;;;19.70;72.50;;;;;;5039538;28;20458;-78
2022/04/22 13:19:02;;;;;;;1.50;0.90;;;19.50;72.60;;;;;;5038045;28;20475;-79
2022/04/22 13:21:29;;;;;;;1.50;0.90;;;19.30;73.20;;;;;;5048302;28;20498;-77
2022/04/22 13:23:56;;;;;;;1.43;0.90;;;19.30;73.60;;;;;;5064532;22;20490;-77
2022/04/22 13:26:27;;;;;;;1.43;0.90;;;19.30;74.60;;;;;;5039589;28;20834;-77
2022/04/22 13:28:55;;;;;;;1.47;0.90;;;19.30;73.90;;;;;;5039131;28;20543;-77
2022/04/22 13:31:23;;;;;;;1.47;1.00;;;19.30;73.50;;;;;;5046125;28;20466;-78
2022/04/22 13:33:50;;;;;;;1.50;1.00;;;19.40;73.50;;;;;;5030322;28;20573;-77
2022/04/22 13:36:18;;;;;;;1.47;0.90;;;19.50;73.90;;;;;;5032750;28;20454;-77
2022/04/22 13:38:44;;;;;;;1.50;0.90;;;19.70;73.80;;;;;;5031575;28;20490;-77
2022/04/22 13:41:12;;;;;;;1.50;1.20;;;19.80;73.40;;;;;;5031899;28;20548;-78
2022/04/22 13:43:39;;;;;;;1.43;0.90;;;19.80;73.30;;;;;;5039170;28;20498;-77
2022/04/22 13:54:23;;;;;;;1.43;0.90;;;19.80;72.80;;;;;;5030238;28;20478;-78
2022/04/22 13:56:50;;;;;;;1.43;1.00;;;19.90;74.50;;;;;;5030148;28;20459;-78
2022/04/22 13:59:17;;;;;;;1.40;0.90;;;20.10;73.00;;;;;;5045364;28;20748;-76
2022/04/22 14:01:44;;;;;;;1.50;0.90;;;20.20;72.50;;;;;;5040601;28;20502;-78
2022/04/22 14:04:12;;;;;;;1.43;0.90;;;20.30;72.10;;;;;;5031991;28;20483;-77
2022/04/22 14:06:38;;;;;;;1.43;0.90;;;20.10;72.80;;;;;;5035006;28;20462;-77
2022/04/22 14:09:05;;;;;;;1.50;1.10;;;20.20;73.00;;;;;;5036494;28;20454;-77
2022/04/22 14:11:32;;;;;;;1.50;0.90;;;20.30;72.70;;;;;;5031262;28;20934;-77